Orbital elements of FENGYUN 1C DEB
| Launched | 9 May 1999 |
| Flight ended | – |
| Launch site | Taiyuan Space Center, PRC |
| Owner | People's Republic of China |
| NORAD ID | 32459 |
| Date fetched |
Epoch osculation |
Inc. [°] |
Ecc. | RA asc node [hr] |
Arg Peri. [°] |
Mean anom [°] |
Mean motion [rev/day] |
Abs. mag |
| Date fetched |
Epoch osculation |
Inc. [°] |
Ecc. | RA asc node [hr] |
Arg Peri. [°] |
Mean anom [°] |
Mean motion [rev/day] |
Abs. mag |
| 2026 May 08 17:57 | 2026 May 04 06:21:52 | 98.2944 | 0.02129 | 9.3306 | 114.6936 | 247.6580 | 14.43527 | – |
| 2026 May 07 17:58 | 2026 May 04 06:21:52 | 98.2944 | 0.02129 | 9.3306 | 114.6936 | 247.6580 | 14.43527 | – |
| 2026 May 06 17:57 | 2026 May 04 06:21:52 | 98.2944 | 0.02129 | 9.3306 | 114.6936 | 247.6580 | 14.43527 | – |
| 2026 May 05 17:57 | 2026 May 04 06:21:52 | 98.2944 | 0.02129 | 9.3306 | 114.6936 | 247.6580 | 14.43527 | – |
| 2026 May 04 17:57 | 2026 Apr 28 07:17:41 | 98.2951 | 0.02127 | 8.9430 | 132.6548 | 247.6580 | 14.43527 | – |
| 2026 May 03 17:57 | 2026 Apr 28 07:17:41 | 98.2951 | 0.02127 | 8.9430 | 132.6548 | 247.6580 | 14.43527 | – |
| 2026 May 02 17:57 | 2026 Apr 28 07:17:41 | 98.2951 | 0.02127 | 8.9430 | 132.6548 | 247.6580 | 14.43527 | – |
| 2026 May 01 17:56 | 2026 Apr 28 07:17:41 | 98.2951 | 0.02127 | 8.9430 | 132.6548 | 247.6580 | 14.43527 | – |
| 2026 Apr 30 17:56 | 2026 Apr 28 07:17:41 | 98.2951 | 0.02127 | 8.9430 | 132.6548 | 247.6580 | 14.43527 | – |
| 2026 Apr 29 17:57 | 2026 Apr 24 11:47:42 | 98.2962 | 0.02125 | 8.6952 | 144.1552 | 247.6580 | 14.43527 | – |
| 2026 Apr 28 17:56 | 2026 Apr 24 11:47:42 | 98.2962 | 0.02125 | 8.6952 | 144.1552 | 247.6580 | 14.43527 | – |
| 2026 Apr 27 17:58 | 2026 Apr 24 11:47:42 | 98.2962 | 0.02125 | 8.6952 | 144.1552 | 247.6580 | 14.43527 | – |
| 2026 Apr 26 17:58 | 2026 Apr 24 11:47:42 | 98.2962 | 0.02125 | 8.6952 | 144.1552 | 247.6580 | 14.43527 | – |
| 2026 Apr 25 17:58 | 2026 Apr 24 11:47:42 | 98.2962 | 0.02125 | 8.6952 | 144.1552 | 247.6580 | 14.43527 | – |
| 2026 Apr 24 17:59 | 2026 Apr 24 11:47:42 | 98.2962 | 0.02125 | 8.6952 | 144.1552 | 247.6580 | 14.43527 | – |
| 2026 Apr 23 17:57 | 2026 Apr 19 07:01:15 | 98.2960 | 0.02122 | 8.3571 | 159.8556 | 247.6580 | 14.43527 | – |
| 2026 Apr 22 17:57 | 2026 Apr 19 07:01:15 | 98.2960 | 0.02122 | 8.3571 | 159.8556 | 247.6580 | 14.43527 | – |
| 2026 Apr 21 17:57 | 2026 Apr 19 07:01:15 | 98.2960 | 0.02122 | 8.3571 | 159.8556 | 247.6580 | 14.43527 | – |
| 2026 Apr 20 17:57 | 2026 Apr 19 07:01:15 | 98.2960 | 0.02122 | 8.3571 | 159.8556 | 247.6580 | 14.43527 | – |
| 2026 Apr 19 17:58 | 2026 Apr 19 07:01:15 | 98.2960 | 0.02122 | 8.3571 | 159.8556 | 247.6580 | 14.43527 | – |
| 2026 Apr 18 17:56 | 2026 Apr 12 18:38:08 | 98.2966 | 0.02118 | 7.9333 | 179.5629 | 247.6580 | 14.43527 | – |
| 2026 Apr 16 17:57 | 2026 Apr 12 18:38:08 | 98.2966 | 0.02118 | 7.9333 | 179.5629 | 247.6580 | 14.43527 | – |
| 2026 Apr 14 17:57 | 2026 Apr 12 18:38:08 | 98.2966 | 0.02118 | 7.9333 | 179.5629 | 247.6580 | 14.43527 | – |
| 2026 Apr 13 17:57 | 2026 Apr 12 18:38:08 | 98.2966 | 0.02118 | 7.9333 | 179.5629 | 247.6580 | 14.43527 | – |
| 2026 Apr 12 17:57 | 2026 Apr 07 12:11:44 | 98.2966 | 0.02114 | 7.5907 | 195.5318 | 247.6580 | 14.43527 | – |
| 2026 Apr 11 17:57 | 2026 Apr 07 12:11:44 | 98.2966 | 0.02114 | 7.5907 | 195.5318 | 247.6580 | 14.43527 | – |